Time;durP1;ratioP1;P1;durP2;ratioP2;P2;SDS_P1;SDS_P2;PMS_P1;PMS_P2;Temp;Humidity;BMP_temperature;BMP_pressure;BME280_temperature;BME280_humidity;BME280_pressure;Samples;Min_cycle;Max_cycle;Signal;HPM_P1;HPM_P2
2023/07/26 00:02:28;;;;;;;0.10;0.10;;;13.80;61.10;;;;;;5050407;28;20541;-49
2023/07/26 00:04:58;;;;;;;0.10;0.10;;;13.90;61.30;;;;;;5047119;28;20184;-50
2023/07/26 00:07:29;;;;;;;0.15;0.15;;;13.90;61.30;;;;;;5045595;28;20208;-49
2023/07/26 00:10:01;;;;;;;0.20;0.20;;;13.90;61.40;;;;;;5031445;28;20366;-48
2023/07/26 00:12:32;;;;;;;0.10;0.10;;;13.90;61.40;;;;;;5045256;28;20195;-48
2023/07/26 00:15:03;;;;;;;0.10;0.10;;;13.90;61.50;;;;;;5054756;28;20196;-46
2023/07/26 00:17:33;;;;;;;0.10;0.10;;;13.90;61.50;;;;;;5052577;28;20276;-47
2023/07/26 00:20:04;;;;;;;0.20;0.20;;;13.90;61.50;;;;;;5053647;28;20537;-48
2023/07/26 00:22:35;;;;;;;0.10;0.10;;;14.00;61.50;;;;;;5050473;28;20185;-47
2023/07/26 00:25:08;;;;;;;0.10;0.10;;;13.90;61.40;;;;;;5054677;28;20695;-46
2023/07/26 00:27:38;;;;;;;0.10;0.10;;;13.90;61.50;;;;;;5041977;28;20766;-46
2023/07/26 00:30:10;;;;;;;0.10;0.10;;;14.00;61.50;;;;;;5033438;28;20262;-47
2023/07/26 00:32:40;;;;;;;0.10;0.10;;;14.00;61.40;;;;;;5033523;28;20192;-50
2023/07/26 00:35:19;;;;;;;0.10;0.10;;;14.00;61.30;;;;;;5037381;28;20207;-47
2023/07/26 00:37:50;;;;;;;0.10;0.10;;;14.00;61.20;;;;;;5053183;28;20281;-49
2023/07/26 00:40:23;;;;;;;0.10;0.10;;;14.00;61.10;;;;;;5052921;28;20192;-50
2023/07/26 00:42:53;;;;;;;0.10;0.10;;;14.00;61.10;;;;;;5053161;28;20228;-50
2023/07/26 00:45:24;;;;;;;0.10;0.10;;;14.10;61.10;;;;;;5041729;28;20200;-50
2023/07/26 00:47:55;;;;;;;0.10;0.10;;;14.10;61.20;;;;;;5047527;28;20268;-51
2023/07/26 00:50:26;;;;;;;0.10;0.10;;;14.10;61.10;;;;;;5053502;28;20199;-47
2023/07/26 00:52:57;;;;;;;0.10;0.10;;;14.10;61.10;;;;;;5033108;28;20192;-48
2023/07/26 00:55:30;;;;;;;0.10;0.10;;;14.10;61.10;;;;;;5033824;28;20566;-49
2023/07/26 00:58:01;;;;;;;0.20;0.20;;;14.10;61.10;;;;;;5033713;28;20703;-47
2023/07/26 01:00:32;;;;;;;0.10;0.10;;;14.10;61.00;;;;;;5033957;28;20722;-47
2023/07/26 01:03:03;;;;;;;0.10;0.10;;;14.20;61.10;;;;;;5033025;28;20196;-46
2023/07/26 01:05:40;;;;;;;0.10;0.10;;;14.20;61.10;;;;;;5040496;28;20204;-48
2023/07/26 01:08:20;;;;;;;0.10;0.10;;;14.20;61.10;;;;;;5052233;28;20217;-47
2023/07/26 01:10:56;;;;;;;0.10;0.10;;;14.20;61.10;;;;;;5053254;28;20242;-47
2023/07/26 01:13:33;;;;;;;0.10;0.10;;;14.20;60.90;;;;;;5042178;28;20188;-47
2023/07/26 01:16:04;;;;;;;0.20;0.20;;;14.20;60.80;;;;;;5032691;28;20207;-47
2023/07/26 01:18:35;;;;;;;0.10;0.10;;;14.30;60.80;;;;;;5050464;28;20227;-47
2023/07/26 01:21:06;;;;;;;0.17;0.17;;;14.30;60.80;;;;;;5052518;28;20599;-47
2023/07/26 01:23:38;;;;;;;0.10;0.10;;;14.30;60.70;;;;;;5035573;28;20197;-47
2023/07/26 01:26:09;;;;;;;0.10;0.10;;;14.30;60.90;;;;;;5032400;28;20222;-47
2023/07/26 01:28:40;;;;;;;0.20;0.20;;;14.30;61.00;;;;;;5032680;28;20219;-46
2023/07/26 01:31:12;;;;;;;0.10;0.10;;;14.30;61.00;;;;;;5031910;28;20215;-46
2023/07/26 01:33:44;;;;;;;0.10;0.10;;;14.40;61.00;;;;;;5033182;28;20189;-48
2023/07/26 01:36:15;;;;;;;0.20;0.20;;;14.40;60.90;;;;;;5045272;28;20206;-47
2023/07/26 01:38:49;;;;;;;0.10;0.10;;;14.40;60.80;;;;;;5051789;28;20222;-50
2023/07/26 01:41:21;;;;;;;0.13;0.13;;;14.40;60.80;;;;;;5052545;28;20203;-49
2023/07/26 01:43:51;;;;;;;0.10;0.10;;;14.50;60.80;;;;;;5052041;28;20652;-47
2023/07/26 01:46:22;;;;;;;0.10;0.10;;;14.50;60.70;;;;;;5051966;28;20199;-49
2023/07/26 01:48:53;;;;;;;0.03;0.03;;;14.50;60.80;;;;;;5052183;28;20219;-47
2023/07/26 01:51:23;;;;;;;0.10;0.10;;;14.50;60.80;;;;;;5044934;28;20672;-47
2023/07/26 01:53:56;;;;;;;0.10;0.10;;;14.50;60.70;;;;;;5032841;28;20676;-47
2023/07/26 01:56:27;;;;;;;0.10;0.10;;;14.50;60.60;;;;;;5032885;28;20204;-47
2023/07/26 01:58:57;;;;;;;0.10;0.10;;;14.50;60.50;;;;;;5050074;28;20235;-48
2023/07/26 02:01:28;;;;;;;0.10;0.10;;;14.60;60.50;;;;;;5043462;28;20191;-49
2023/07/26 02:03:58;;;;;;;0.10;0.10;;;14.60;60.40;;;;;;5033692;28;20240;-50
2023/07/26 02:06:29;;;;;;;0.10;0.10;;;14.60;60.40;;;;;;5046385;28;20200;-52
2023/07/26 02:09:01;;;;;;;0.10;0.10;;;14.60;60.30;;;;;;5050044;28;20208;-46
2023/07/26 02:11:32;;;;;;;0.10;0.10;;;14.60;60.40;;;;;;5032191;28;20212;-49
2023/07/26 02:14:03;;;;;;;0.10;0.10;;;14.70;60.50;;;;;;5049912;28;20207;-50
2023/07/26 02:16:34;;;;;;;0.10;0.10;;;14.70;60.50;;;;;;5050015;28;20677;-48
2023/07/26 02:19:04;;;;;;;0.10;0.10;;;14.70;60.50;;;;;;5033359;28;20255;-49
2023/07/26 02:21:35;;;;;;;0.10;0.10;;;14.70;60.50;;;;;;5031706;28;20287;-48
2023/07/26 02:24:08;;;;;;;0.10;0.10;;;14.70;60.50;;;;;;5034681;28;20246;-50
2023/07/26 02:26:38;;;;;;;0.10;0.10;;;14.70;60.50;;;;;;5032288;28;20196;-46
2023/07/26 02:29:09;;;;;;;0.10;0.10;;;14.80;60.50;;;;;;5050551;28;20667;-50
2023/07/26 02:31:40;;;;;;;0.10;0.10;;;14.80;60.40;;;;;;5051734;28;20203;-48
2023/07/26 02:34:10;;;;;;;0.10;0.10;;;14.80;60.40;;;;;;5050931;28;20195;-49
2023/07/26 02:36:41;;;;;;;0.10;0.10;;;14.80;60.40;;;;;;5051321;28;20203;-48
2023/07/26 02:39:13;;;;;;;0.10;0.10;;;14.90;60.50;;;;;;5051196;28;20277;-47
2023/07/26 02:41:44;;;;;;;0.10;0.10;;;14.90;60.40;;;;;;5051939;28;20199;-48
2023/07/26 02:44:15;;;;;;;0.10;0.10;;;14.90;60.40;;;;;;5046383;28;20192;-48
2023/07/26 02:46:45;;;;;;;0.10;0.10;;;14.90;60.40;;;;;;5031316;28;20770;-48
2023/07/26 02:49:16;;;;;;;0.10;0.10;;;14.90;60.40;;;;;;5050782;28;20230;-48
2023/07/26 02:51:47;;;;;;;0.10;0.10;;;15.00;60.60;;;;;;5041143;28;20196;-48
2023/07/26 02:54:19;;;;;;;0.10;0.10;;;15.00;60.60;;;;;;5031529;28;20200;-49
2023/07/26 02:56:50;;;;;;;0.10;0.10;;;15.00;60.60;;;;;;5031394;28;20224;-47
2023/07/26 02:59:22;;;;;;;0.10;0.10;;;15.00;60.60;;;;;;5050329;28;20230;-50
2023/07/26 03:01:53;;;;;;;0.10;0.10;;;15.00;60.60;;;;;;5050618;28;20245;-47
2023/07/26 03:04:23;;;;;;;0.10;0.10;;;15.10;60.70;;;;;;5049993;28;20195;-48
2023/07/26 03:06:54;;;;;;;0.10;0.10;;;15.10;60.70;;;;;;5050547;28;20689;-48
2023/07/26 03:09:27;;;;;;;0.10;0.10;;;15.10;60.60;;;;;;5050385;28;20195;-49
2023/07/26 03:11:57;;;;;;;0.10;0.10;;;15.10;60.70;;;;;;5050407;28;20615;-49
2023/07/26 03:14:28;;;;;;;0.10;0.10;;;15.20;60.70;;;;;;5051182;28;20199;-50
2023/07/26 03:16:59;;;;;;;0.10;0.10;;;15.20;60.60;;;;;;5050773;28;20198;-47
2023/07/26 03:19:29;;;;;;;0.10;0.10;;;15.20;60.70;;;;;;5043680;28;20691;-47
2023/07/26 03:22:00;;;;;;;0.05;0.05;;;15.20;60.70;;;;;;5030909;28;20196;-47
2023/07/26 03:24:32;;;;;;;0.00;0.00;;;15.20;60.70;;;;;;5050396;28;20632;-47
2023/07/26 03:27:03;;;;;;;0.10;0.10;;;15.30;60.80;;;;;;5050687;28;20219;-52
2023/07/26 03:29:33;;;;;;;0.10;0.10;;;15.30;60.80;;;;;;5050385;28;20187;-47
2023/07/26 03:32:04;;;;;;;0.10;0.10;;;15.30;60.80;;;;;;5045127;28;20690;-48
2023/07/26 03:34:35;;;;;;;0.10;0.10;;;15.40;60.70;;;;;;5031290;28;20660;-49
2023/07/26 03:37:05;;;;;;;0.10;0.10;;;15.40;60.70;;;;;;5050674;28;20223;-47
2023/07/26 03:39:38;;;;;;;0.08;0.08;;;15.40;60.60;;;;;;5051063;28;20621;-47
2023/07/26 03:42:09;;;;;;;0.10;0.10;;;15.40;60.50;;;;;;5051016;28;20712;-48
2023/07/26 03:44:40;;;;;;;0.10;0.10;;;15.40;60.60;;;;;;5052846;28;20624;-48
2023/07/26 03:47:10;;;;;;;0.10;0.10;;;15.50;60.50;;;;;;5055132;28;20222;-49
2023/07/26 03:49:42;;;;;;;0.10;0.10;;;15.50;60.50;;;;;;5054994;28;20206;-48
2023/07/26 03:52:13;;;;;;;0.10;0.10;;;15.50;60.40;;;;;;5054913;28;20253;-48
2023/07/26 03:54:45;;;;;;;0.10;0.10;;;15.50;60.40;;;;;;5054810;28;20647;-48
2023/07/26 03:57:16;;;;;;;0.10;0.10;;;15.60;60.50;;;;;;5054703;28;20215;-48
2023/07/26 03:59:46;;;;;;;0.10;0.10;;;15.60;60.50;;;;;;5039695;28;20227;-50
2023/07/26 04:02:17;;;;;;;0.10;0.10;;;15.60;60.40;;;;;;5035161;28;20200;-48
2023/07/26 04:04:48;;;;;;;0.10;0.10;;;15.70;60.50;;;;;;5035345;28;20207;-46
2023/07/26 04:07:18;;;;;;;0.10;0.10;;;15.70;60.50;;;;;;5041614;28;20208;-51
2023/07/26 04:09:51;;;;;;;0.10;0.10;;;15.70;60.40;;;;;;5036015;28;20200;-50
2023/07/26 04:12:21;;;;;;;0.10;0.10;;;15.70;60.30;;;;;;5044317;28;20242;-49
2023/07/26 04:14:52;;;;;;;0.10;0.10;;;15.80;60.30;;;;;;5036535;28;20195;-48
2023/07/26 04:17:22;;;;;;;0.10;0.10;;;15.80;60.30;;;;;;5050311;28;20631;-49
2023/07/26 04:19:53;;;;;;;0.10;0.10;;;15.80;60.30;;;;;;5053860;28;20718;-49
2023/07/26 04:22:24;;;;;;;0.10;0.10;;;15.80;60.30;;;;;;5051485;28;20540;-50
2023/07/26 04:24:56;;;;;;;0.10;0.10;;;15.90;60.20;;;;;;5043899;28;20220;-51
2023/07/26 04:27:27;;;;;;;0.10;0.10;;;15.90;60.10;;;;;;5033911;28;20216;-48
2023/07/26 04:29:57;;;;;;;0.08;0.08;;;16.00;60.00;;;;;;5047373;28;20199;-51
2023/07/26 04:32:28;;;;;;;0.10;0.10;;;16.00;59.90;;;;;;5037621;28;20549;-51
2023/07/26 04:34:59;;;;;;;0.10;0.10;;;16.00;59.90;;;;;;5044095;28;20199;-51
2023/07/26 04:37:29;;;;;;;0.10;0.10;;;16.00;60.00;;;;;;5052299;28;20236;-51
2023/07/26 04:40:02;;;;;;;0.10;0.10;;;16.10;59.80;;;;;;5052726;28;20230;-48
2023/07/26 04:42:32;;;;;;;0.00;0.00;;;16.00;59.70;;;;;;5036458;28;20195;-48
2023/07/26 04:45:03;;;;;;;0.10;0.10;;;16.10;59.60;;;;;;5034081;28;21008;-49
2023/07/26 04:47:34;;;;;;;0.10;0.10;;;16.10;59.60;;;;;;5049495;28;20276;-50
2023/07/26 04:50:04;;;;;;;0.10;0.10;;;16.10;59.50;;;;;;5053794;28;20207;-48
2023/07/26 04:52:37;;;;;;;0.10;0.10;;;16.20;59.60;;;;;;5053277;28;20198;-47
2023/07/26 04:55:11;;;;;;;0.08;0.08;;;16.10;59.60;;;;;;5037998;28;20204;-47
2023/07/26 04:57:42;;;;;;;0.10;0.10;;;16.20;59.70;;;;;;5048888;28;20219;-49
2023/07/26 05:00:13;;;;;;;0.10;0.10;;;16.20;59.70;;;;;;5052179;28;20265;-48
2023/07/26 05:02:44;;;;;;;0.10;0.10;;;16.10;59.70;;;;;;5033130;28;20196;-52
2023/07/26 05:05:14;;;;;;;0.10;0.10;;;16.10;59.70;;;;;;5036952;28;20290;-50
2023/07/26 05:07:45;;;;;;;0.00;0.00;;;16.20;59.80;;;;;;5052761;28;20215;-49
2023/07/26 05:10:19;;;;;;;0.10;0.10;;;16.20;59.80;;;;;;5053105;28;20261;-48
2023/07/26 05:12:50;;;;;;;0.17;0.17;;;16.20;59.80;;;;;;5053427;28;20218;-48
2023/07/26 05:15:21;;;;;;;0.10;0.10;;;16.10;59.70;;;;;;5053506;28;20195;-49
2023/07/26 05:17:52;;;;;;;0.10;0.10;;;16.20;59.70;;;;;;5053406;28;20212;-50
2023/07/26 05:20:23;;;;;;;0.10;0.10;;;16.20;59.70;;;;;;5053376;28;20215;-49
2023/07/26 05:22:54;;;;;;;0.00;0.00;;;16.20;59.70;;;;;;5051715;28;20203;-50
2023/07/26 05:25:26;;;;;;;0.10;0.10;;;16.10;59.60;;;;;;5053000;28;20553;-48
2023/07/26 05:27:57;;;;;;;0.05;0.05;;;16.10;59.60;;;;;;5051563;28;20211;-48
2023/07/26 05:30:27;;;;;;;0.10;0.10;;;16.20;59.60;;;;;;5045130;28;20293;-49
2023/07/26 05:32:58;;;;;;;0.10;0.10;;;16.20;59.60;;;;;;5033284;28;20199;-52
2023/07/26 05:35:29;;;;;;;0.10;0.10;;;16.20;59.60;;;;;;5039381;28;20203;-49
2023/07/26 05:37:59;;;;;;;0.10;0.10;;;16.20;59.60;;;;;;5052329;28;20223;-48
2023/07/26 05:40:32;;;;;;;0.10;0.10;;;16.10;59.50;;;;;;5051614;28;20642;-49
2023/07/26 05:43:02;;;;;;;0.10;0.10;;;16.10;59.50;;;;;;5052858;28;20200;-51
2023/07/26 05:45:33;;;;;;;0.10;0.10;;;16.10;59.50;;;;;;5052062;28;20203;-52
2023/07/26 05:48:03;;;;;;;0.10;0.10;;;16.10;59.50;;;;;;5052850;28;20576;-52
2023/07/26 05:50:34;;;;;;;0.10;0.10;;;16.10;59.50;;;;;;5052569;28;20210;-51
2023/07/26 05:53:05;;;;;;;0.10;0.10;;;16.10;59.50;;;;;;5052382;28;20596;-53
2023/07/26 05:55:37;;;;;;;0.10;0.10;;;16.10;59.40;;;;;;5051463;28;20199;-47
2023/07/26 05:58:08;;;;;;;0.10;0.10;;;16.00;59.40;;;;;;5042119;28;20220;-48
2023/07/26 06:00:38;;;;;;;0.10;0.10;;;16.00;59.40;;;;;;5035144;28;20227;-47
2023/07/26 06:03:09;;;;;;;0.05;0.05;;;16.00;59.40;;;;;;5049129;28;20199;-48
2023/07/26 06:05:42;;;;;;;0.08;0.08;;;16.00;59.40;;;;;;5051966;28;20203;-47
2023/07/26 06:08:14;;;;;;;0.10;0.10;;;16.00;59.30;;;;;;5052083;28;20762;-48
2023/07/26 06:10:46;;;;;;;0.10;0.10;;;16.00;59.30;;;;;;5038217;28;20204;-46
2023/07/26 06:13:17;;;;;;;0.10;0.10;;;15.90;59.20;;;;;;5031938;28;20196;-46
2023/07/26 06:15:47;;;;;;;0.20;0.20;;;15.90;59.20;;;;;;5032218;28;20200;-47
2023/07/26 06:18:19;;;;;;;0.10;0.10;;;15.90;59.20;;;;;;5031961;28;20238;-46
2023/07/26 06:20:50;;;;;;;0.10;0.10;;;15.90;59.20;;;;;;5032522;28;20223;-49
2023/07/26 06:23:21;;;;;;;0.10;0.10;;;15.90;59.20;;;;;;5047707;28;20195;-48
2023/07/26 06:25:56;;;;;;;0.10;0.10;;;15.90;59.20;;;;;;5034502;28;20664;-53
2023/07/26 06:28:27;;;;;;;0.00;0.00;;;15.90;59.20;;;;;;5032455;28;20227;-50
2023/07/26 06:30:59;;;;;;;0.15;0.15;;;15.90;59.20;;;;;;5030521;28;20207;-51
2023/07/26 06:33:30;;;;;;;0.10;0.10;;;15.80;59.10;;;;;;5031600;28;20553;-49
2023/07/26 06:36:04;;;;;;;0.08;0.08;;;15.80;59.10;;;;;;5042576;28;20283;-50
2023/07/26 06:38:34;;;;;;;0.10;0.10;;;15.80;59.10;;;;;;5051374;28;20227;-47
2023/07/26 06:41:07;;;;;;;0.03;0.03;;;15.80;59.10;;;;;;5050491;28;20227;-48
2023/07/26 06:43:37;;;;;;;0.08;0.08;;;15.70;59.10;;;;;;5051322;28;20611;-47
2023/07/26 06:46:08;;;;;;;0.10;0.10;;;15.70;59.10;;;;;;5037699;28;20196;-47
2023/07/26 06:48:39;;;;;;;0.10;0.10;;;15.70;59.00;;;;;;5031640;28;20212;-48
2023/07/26 06:51:09;;;;;;;0.10;0.10;;;15.70;59.00;;;;;;5031233;28;20192;-50
2023/07/26 06:53:40;;;;;;;0.20;0.20;;;15.60;59.50;;;;;;5031324;28;20557;-50
2023/07/26 06:56:12;;;;;;;0.10;0.10;;;15.70;58.90;;;;;;5030602;28;20204;-48
2023/07/26 06:58:44;;;;;;;0.10;0.10;;;15.70;59.00;;;;;;5030457;28;20231;-49
2023/07/26 07:01:20;;;;;;;0.10;0.10;;;15.60;58.90;;;;;;5039248;28;20621;-49
2023/07/26 07:03:51;;;;;;;0.10;0.10;;;15.60;58.90;;;;;;5049471;28;20191;-48
2023/07/26 07:06:21;;;;;;;0.10;0.10;;;15.60;58.90;;;;;;5045181;28;20199;-49
2023/07/26 07:08:52;;;;;;;0.10;0.10;;;15.60;58.90;;;;;;5051045;28;20215;-47
2023/07/26 07:11:24;;;;;;;0.10;0.10;;;15.50;58.80;;;;;;5051083;28;20199;-46
2023/07/26 07:13:56;;;;;;;0.05;0.05;;;15.50;58.90;;;;;;5050105;28;20204;-47
2023/07/26 07:16:27;;;;;;;0.00;0.00;;;15.50;58.80;;;;;;5050746;28;20199;-48
2023/07/26 07:18:57;;;;;;;0.10;0.10;;;15.50;58.80;;;;;;5050589;28;20219;-54
2023/07/26 07:21:28;;;;;;;0.03;0.03;;;15.50;59.40;;;;;;5051095;28;20223;-48
2023/07/26 07:23:59;;;;;;;0.10;0.10;;;15.40;58.80;;;;;;5050866;28;20191;-53
2023/07/26 07:26:32;;;;;;;0.10;0.10;;;15.40;58.70;;;;;;5050544;28;20222;-47
2023/07/26 07:29:02;;;;;;;0.20;0.20;;;15.40;58.80;;;;;;5050770;28;20212;-50
2023/07/26 07:31:33;;;;;;;0.10;0.10;;;15.40;58.70;;;;;;5049605;28;20218;-48
2023/07/26 07:34:04;;;;;;;0.10;0.10;;;15.30;58.70;;;;;;5051168;28;20202;-46
2023/07/26 07:36:34;;;;;;;0.10;0.10;;;15.40;58.70;;;;;;5051207;28;20199;-50
2023/07/26 07:39:07;;;;;;;0.10;0.10;;;15.30;58.70;;;;;;5050591;28;20719;-48
2023/07/26 07:41:40;;;;;;;0.10;0.10;;;15.30;58.60;;;;;;5050837;28;20667;-49
2023/07/26 07:44:11;;;;;;;0.10;0.10;;;15.30;58.60;;;;;;5050639;28;20195;-51
2023/07/26 07:46:44;;;;;;;0.10;0.10;;;15.30;58.60;;;;;;5051289;28;20195;-47
2023/07/26 07:49:14;;;;;;;0.10;0.10;;;15.30;58.70;;;;;;5050921;28;20228;-46
2023/07/26 07:51:45;;;;;;;0.10;0.10;;;15.20;58.50;;;;;;5050550;28;20202;-52
2023/07/26 07:54:16;;;;;;;0.10;0.10;;;15.20;58.60;;;;;;5050445;28;20693;-46
2023/07/26 07:56:50;;;;;;;0.20;0.20;;;15.20;58.60;;;;;;5050451;28;20202;-47
2023/07/26 07:59:20;;;;;;;0.10;0.10;;;15.20;59.10;;;;;;5050095;28;20249;-47
2023/07/26 08:01:51;;;;;;;0.10;0.10;;;15.20;58.50;;;;;;5038575;28;20196;-47
2023/07/26 08:04:21;;;;;;;0.10;0.10;;;15.20;58.60;;;;;;5031088;28;20200;-48
2023/07/26 08:06:52;;;;;;;0.10;0.10;;;15.10;58.50;;;;;;5032675;28;20200;-48
2023/07/26 08:09:23;;;;;;;0.10;0.10;;;15.10;58.50;;;;;;5030550;28;20204;-47
2023/07/26 08:11:56;;;;;;;0.03;0.03;;;15.10;58.60;;;;;;5033368;28;20197;-47
2023/07/26 08:14:26;;;;;;;0.10;0.10;;;15.10;58.60;;;;;;5030508;28;20199;-49
2023/07/26 08:16:57;;;;;;;0.10;0.10;;;15.10;58.50;;;;;;5030851;28;20207;-51
2023/07/26 08:19:28;;;;;;;0.10;0.10;;;15.10;58.50;;;;;;5030580;28;20263;-46
2023/07/26 08:21:58;;;;;;;0.10;0.10;;;15.00;58.40;;;;;;5030538;28;20687;-48
2023/07/26 08:24:29;;;;;;;0.10;0.10;;;15.00;58.40;;;;;;5030396;28;20192;-47
2023/07/26 08:27:02;;;;;;;0.10;0.10;;;15.00;58.40;;;;;;5037795;28;20210;-46
2023/07/26 08:29:33;;;;;;;0.10;0.10;;;15.00;58.40;;;;;;5049924;28;20286;-46
2023/07/26 08:32:04;;;;;;;0.10;0.10;;;14.90;58.30;;;;;;5053233;28;20298;-48
2023/07/26 08:34:34;;;;;;;0.10;0.10;;;14.90;58.40;;;;;;5054162;28;20207;-47
2023/07/26 08:37:05;;;;;;;0.10;0.10;;;14.90;58.30;;;;;;5054361;28;20249;-46
2023/07/26 08:39:35;;;;;;;0.10;0.10;;;14.90;58.40;;;;;;5053543;28;20195;-47
2023/07/26 08:42:09;;;;;;;0.10;0.10;;;14.90;58.40;;;;;;5053439;28;20713;-47
2023/07/26 08:44:40;;;;;;;0.10;0.10;;;14.90;58.40;;;;;;5052867;28;20571;-46
2023/07/26 08:47:12;;;;;;;0.10;0.10;;;14.90;58.40;;;;;;5053484;28;20235;-47
2023/07/26 08:49:43;;;;;;;0.10;0.10;;;14.90;58.40;;;;;;5053502;28;20196;-46
2023/07/26 08:52:14;;;;;;;0.10;0.10;;;14.80;58.40;;;;;;5051857;28;20780;-46
2023/07/26 08:54:48;;;;;;;0.10;0.10;;;14.80;58.40;;;;;;5036949;28;20201;-46
2023/07/26 08:57:21;;;;;;;0.10;0.10;;;14.80;58.40;;;;;;5033751;28;20221;-46
2023/07/26 08:59:52;;;;;;;0.17;0.17;;;14.80;58.40;;;;;;5033907;28;20250;-46
2023/07/26 09:02:24;;;;;;;0.20;0.20;;;14.80;58.40;;;;;;5038744;28;20536;-47
2023/07/26 09:04:54;;;;;;;0.10;0.10;;;14.80;58.40;;;;;;5053154;28;20231;-48
2023/07/26 09:07:25;;;;;;;0.10;0.10;;;14.80;58.40;;;;;;5045282;28;20208;-46
2023/07/26 09:09:56;;;;;;;0.10;0.10;;;14.80;58.40;;;;;;5033871;28;20207;-47
2023/07/26 09:12:32;;;;;;;0.10;0.10;;;14.70;58.40;;;;;;5033124;28;20253;-50
2023/07/26 09:15:07;;;;;;;0.10;0.10;;;14.70;58.40;;;;;;5044773;28;20199;-48
2023/07/26 09:17:45;;;;;;;0.15;0.15;;;14.70;58.40;;;;;;5052727;28;20219;-50
2023/07/26 09:20:28;;;;;;;0.10;0.10;;;14.70;58.30;;;;;;5051871;28;20227;-47
2023/07/26 09:23:05;;;;;;;0.10;0.10;;;14.70;58.40;;;;;;5053067;28;20685;-49
2023/07/26 09:25:37;;;;;;;0.10;0.10;;;14.70;58.30;;;;;;5053680;28;20683;-47
2023/07/26 09:28:11;;;;;;;0.10;0.10;;;14.60;58.30;;;;;;5052777;28;20216;-49
2023/07/26 09:30:42;;;;;;;0.10;0.10;;;14.60;58.30;;;;;;5052805;28;20214;-50
2023/07/26 09:33:14;;;;;;;0.10;0.10;;;14.60;58.40;;;;;;5051413;28;21389;-47
2023/07/26 09:35:49;;;;;;;0.10;0.10;;;14.60;58.40;;;;;;5052236;28;20286;-50
2023/07/26 09:38:24;;;;;;;0.20;0.20;;;14.60;58.40;;;;;;5052565;28;20904;-46
2023/07/26 09:40:54;;;;;;;0.10;0.10;;;14.60;58.40;;;;;;5052375;28;20226;-49
2023/07/26 09:43:36;;;;;;;0.10;0.10;;;14.60;58.40;;;;;;5052304;28;20411;-49
2023/07/26 09:46:07;;;;;;;0.10;0.10;;;14.60;58.30;;;;;;5051688;28;20203;-47
2023/07/26 09:48:38;;;;;;;0.10;0.10;;;14.50;58.20;;;;;;5052116;28;20211;-48
2023/07/26 09:51:10;;;;;;;0.10;0.10;;;14.50;58.20;;;;;;5051515;28;20203;-48
2023/07/26 09:53:43;;;;;;;0.10;0.10;;;14.50;58.20;;;;;;5052596;28;20196;-49
2023/07/26 09:56:14;;;;;;;0.10;0.10;;;14.50;58.20;;;;;;5043056;28;20586;-48
2023/07/26 09:58:47;;;;;;;0.10;0.10;;;14.50;58.20;;;;;;5032292;28;20387;-47
2023/07/26 10:01:19;;;;;;;0.10;0.10;;;14.50;58.20;;;;;;5046431;28;20220;-46
2023/07/26 10:03:54;;;;;;;0.10;0.10;;;14.40;58.10;;;;;;5045840;28;20195;-46
2023/07/26 10:06:27;;;;;;;0.10;0.10;;;14.40;58.10;;;;;;5052032;28;20199;-46
2023/07/26 10:08:59;;;;;;;0.10;0.10;;;14.40;58.10;;;;;;5051619;28;20230;-49
2023/07/26 10:11:31;;;;;;;0.10;0.10;;;14.40;58.10;;;;;;5051206;28;20206;-52
2023/07/26 10:14:05;;;;;;;0.10;0.10;;;14.40;58.10;;;;;;5051122;28;20265;-46
2023/07/26 10:16:37;;;;;;;0.10;0.10;;;14.40;58.20;;;;;;5051545;28;20196;-47
2023/07/26 10:19:09;;;;;;;0.10;0.10;;;14.40;58.20;;;;;;5051822;28;20302;-47
2023/07/26 10:21:41;;;;;;;0.10;0.10;;;14.40;58.10;;;;;;5051602;28;20226;-49
2023/07/26 10:24:12;;;;;;;0.10;0.10;;;14.40;58.10;;;;;;5051803;28;20196;-48
2023/07/26 10:26:46;;;;;;;0.10;0.10;;;14.40;58.10;;;;;;5052173;28;20557;-46
2023/07/26 10:29:19;;;;;;;0.10;0.10;;;14.40;58.00;;;;;;5051831;28;20268;-46
2023/07/26 10:31:50;;;;;;;0.10;0.10;;;14.30;57.90;;;;;;5051502;28;20214;-47
2023/07/26 10:34:24;;;;;;;0.13;0.13;;;14.30;57.90;;;;;;5051391;28;20620;-48
2023/07/26 10:36:56;;;;;;;0.10;0.10;;;14.30;57.90;;;;;;5045979;28;20275;-48
2023/07/26 10:39:34;;;;;;;0.10;0.10;;;14.30;57.90;;;;;;5031836;28;20188;-46
2023/07/26 10:42:06;;;;;;;0.15;0.15;;;14.30;57.90;;;;;;5031268;28;20310;-46
2023/07/26 10:44:43;;;;;;;0.10;0.10;;;14.20;57.80;;;;;;5031127;28;20196;-46
2023/07/26 10:47:14;;;;;;;0.10;0.10;;;14.20;57.80;;;;;;5031346;28;20191;-46
2023/07/26 10:49:48;;;;;;;0.10;0.10;;;14.20;57.80;;;;;;5031755;28;20212;-47
2023/07/26 10:52:20;;;;;;;0.10;0.10;;;14.20;57.80;;;;;;5031061;28;20238;-46
2023/07/26 10:54:51;;;;;;;0.10;0.10;;;14.20;57.80;;;;;;5031230;28;20196;-48
2023/07/26 10:57:24;;;;;;;0.10;0.10;;;14.20;57.90;;;;;;5033106;28;20250;-48
2023/07/26 11:00:06;;;;;;;0.10;0.10;;;14.20;57.90;;;;;;5031456;28;20196;-51
2023/07/26 11:02:44;;;;;;;0.10;0.10;;;14.20;57.90;;;;;;5033671;28;20282;-50
2023/07/26 11:05:17;;;;;;;0.10;0.10;;;14.20;57.90;;;;;;5051136;28;20278;-49
2023/07/26 11:07:55;;;;;;;0.10;0.10;;;14.20;57.80;;;;;;5050973;28;20562;-48
2023/07/26 11:10:28;;;;;;;0.10;0.10;;;14.10;57.80;;;;;;5051075;28;20191;-46
2023/07/26 11:13:16;;;;;;;0.20;0.20;;;14.10;57.80;;;;;;5050208;28;20227;-47
2023/07/26 11:15:50;;;;;;;0.10;0.10;;;14.10;57.70;;;;;;5050900;28;20191;-46
2023/07/26 11:18:21;;;;;;;0.10;0.10;;;14.10;57.70;;;;;;5050962;28;20224;-48
2023/07/26 11:20:54;;;;;;;0.20;0.20;;;14.10;57.70;;;;;;5050826;28;20231;-47
2023/07/26 11:23:26;;;;;;;0.10;0.10;;;14.00;57.70;;;;;;5037728;28;20200;-47
2023/07/26 11:25:58;;;;;;;0.10;0.10;;;14.00;57.70;;;;;;5030696;28;20219;-47
2023/07/26 11:28:33;;;;;;;0.10;0.10;;;14.00;57.70;;;;;;5045779;28;20691;-48
2023/07/26 11:31:05;;;;;;;0.10;0.10;;;14.00;57.70;;;;;;5050317;28;20663;-46
2023/07/26 11:33:37;;;;;;;0.10;0.10;;;14.00;57.70;;;;;;5050641;28;20569;-46
2023/07/26 11:36:08;;;;;;;0.10;0.10;;;14.00;57.80;;;;;;5050270;28;20600;-47
2023/07/26 11:38:45;;;;;;;0.10;0.10;;;14.00;57.80;;;;;;5050724;28;20306;-49
2023/07/26 11:41:20;;;;;;;0.10;0.10;;;14.00;57.80;;;;;;5051275;28;20234;-47
2023/07/26 11:43:51;;;;;;;0.10;0.10;;;14.00;57.80;;;;;;5050284;28;20198;-47
2023/07/26 11:46:31;;;;;;;0.10;0.10;;;14.00;57.80;;;;;;5050457;28;20203;-47
2023/07/26 11:49:02;;;;;;;0.10;0.10;;;14.00;58.40;;;;;;5050431;28;20227;-46
2023/07/26 11:51:35;;;;;;;0.10;0.10;;;14.00;57.80;;;;;;5050190;28;20192;-47
2023/07/26 11:54:09;;;;;;;0.10;0.10;;;14.00;57.70;;;;;;5050522;28;20206;-47
2023/07/26 11:56:40;;;;;;;0.10;0.10;;;14.00;57.80;;;;;;5037199;28;20203;-48
2023/07/26 11:59:11;;;;;;;0.10;0.10;;;14.00;57.70;;;;;;5030486;28;20700;-46
2023/07/26 12:01:45;;;;;;;0.10;0.10;;;14.00;57.70;;;;;;5032453;28;20235;-46
2023/07/26 12:04:17;;;;;;;0.10;0.10;;;14.00;57.70;;;;;;5038908;28;20199;-48
2023/07/26 12:06:48;;;;;;;0.10;0.10;;;14.00;57.80;;;;;;5053474;28;20199;-47
2023/07/26 12:09:19;;;;;;;0.20;0.20;;;13.90;57.70;;;;;;5053970;28;20618;-47
2023/07/26 12:11:53;;;;;;;0.10;0.10;;;13.90;57.70;;;;;;5054171;28;20198;-46
2023/07/26 12:14:24;;;;;;;0.10;0.10;;;13.90;57.70;;;;;;5053894;28;20562;-46
2023/07/26 12:16:57;;;;;;;0.10;0.10;;;13.90;57.70;;;;;;5054000;28;20199;-50
2023/07/26 12:19:28;;;;;;;0.10;0.10;;;13.90;57.80;;;;;;5054403;28;20280;-49
2023/07/26 12:22:01;;;;;;;0.10;0.10;;;13.90;57.80;;;;;;5053818;28;20219;-47
2023/07/26 12:24:32;;;;;;;0.10;0.10;;;13.90;57.80;;;;;;5045437;28;20671;-46
2023/07/26 12:27:08;;;;;;;0.10;0.10;;;13.90;57.80;;;;;;5034322;28;20197;-46
2023/07/26 12:29:41;;;;;;;0.10;0.10;;;13.90;57.80;;;;;;5033970;28;20582;-48
2023/07/26 12:32:18;;;;;;;0.10;0.10;;;13.90;57.80;;;;;;5033835;28;20207;-48
2023/07/26 12:34:49;;;;;;;0.10;0.10;;;13.90;57.70;;;;;;5034081;28;20200;-47
2023/07/26 12:37:30;;;;;;;0.10;0.10;;;13.90;57.70;;;;;;5053904;28;20191;-48
2023/07/26 12:40:01;;;;;;;0.10;0.10;;;13.90;57.70;;;;;;5053644;28;20195;-48
2023/07/26 12:42:32;;;;;;;0.10;0.10;;;13.90;57.70;;;;;;5053486;28;20310;-48
2023/07/26 12:45:03;;;;;;;0.10;0.10;;;13.90;57.80;;;;;;5051536;28;20211;-47
2023/07/26 12:47:35;;;;;;;0.10;0.10;;;13.80;57.70;;;;;;5052876;28;20699;-47
2023/07/26 12:50:06;;;;;;;0.10;0.10;;;13.80;57.70;;;;;;5053777;28;20199;-48
2023/07/26 12:52:40;;;;;;;0.10;0.10;;;13.90;57.80;;;;;;5053181;28;20195;-48
2023/07/26 12:55:11;;;;;;;0.08;0.08;;;13.90;57.80;;;;;;5052813;28;20200;-48
2023/07/26 12:57:41;;;;;;;0.10;0.10;;;13.90;57.80;;;;;;5033058;28;20228;-48
2023/07/26 13:00:13;;;;;;;0.10;0.10;;;13.90;57.80;;;;;;5039850;28;20651;-47
2023/07/26 13:02:45;;;;;;;0.20;0.20;;;13.90;57.80;;;;;;5053165;28;20231;-49
2023/07/26 13:05:16;;;;;;;0.10;0.10;;;13.90;57.80;;;;;;5053052;28;20203;-50
2023/07/26 13:07:49;;;;;;;0.10;0.10;;;13.90;57.80;;;;;;5051956;28;20224;-47
2023/07/26 13:10:20;;;;;;;0.10;0.10;;;13.90;57.80;;;;;;5053037;28;20204;-48
2023/07/26 13:12:51;;;;;;;0.10;0.10;;;13.90;57.80;;;;;;5053546;28;20279;-47